sensor_id;sensor_type;location;lat;lon;timestamp;temperature;humidity
15926;DHT22;8062;53.882;10.642;2022-10-26T00:00:29;7.30;99.90
15926;DHT22;8062;53.882;10.642;2022-10-26T00:01:30;7.30;99.90
15926;DHT22;8062;53.882;10.642;2022-10-26T00:02:31;7.30;99.90
15926;DHT22;8062;53.882;10.642;2022-10-26T00:03:34;7.30;99.90
15926;DHT22;8062;53.882;10.642;2022-10-26T00:04:35;7.30;99.90
15926;DHT22;8062;53.882;10.642;2022-10-26T00:05:36;7.20;99.90
15926;DHT22;8062;53.882;10.642;2022-10-26T00:06:37;7.20;99.90
15926;DHT22;8062;53.882;10.642;2022-10-26T00:07:38;7.20;99.90
15926;DHT22;8062;53.882;10.642;2022-10-26T00:08:40;7.20;99.90
15926;DHT22;8062;53.882;10.642;2022-10-26T00:09:41;7.20;99.90
15926;DHT22;8062;53.882;10.642;2022-10-26T00:10:42;7.10;99.90
15926;DHT22;8062;53.882;10.642;2022-10-26T00:11:43;7.10;99.90
15926;DHT22;8062;53.882;10.642;2022-10-26T00:12:47;7.10;99.90
15926;DHT22;8062;53.882;10.642;2022-10-26T00:13:49;7.10;99.90
15926;DHT22;8062;53.882;10.642;2022-10-26T00:14:50;7.00;99.90
15926;DHT22;8062;53.882;10.642;2022-10-26T00:15:51;7.10;99.90
15926;DHT22;8062;53.882;10.642;2022-10-26T00:16:52;7.10;99.90
15926;DHT22;8062;53.882;10.642;2022-10-26T00:17:54;7.10;99.90
15926;DHT22;8062;53.882;10.642;2022-10-26T00:18:55;7.10;99.90
15926;DHT22;8062;53.882;10.642;2022-10-26T00:19:56;7.20;99.90
15926;DHT22;8062;53.882;10.642;2022-10-26T00:21:02;7.30;99.90
15926;DHT22;8062;53.882;10.642;2022-10-26T00:22:04;7.50;99.90
15926;DHT22;8062;53.882;10.642;2022-10-26T00:23:05;7.50;99.90
15926;DHT22;8062;53.882;10.642;2022-10-26T00:24:06;7.50;99.90
15926;DHT22;8062;53.882;10.642;2022-10-26T00:25:07;7.60;99.90
15926;DHT22;8062;53.882;10.642;2022-10-26T00:26:09;7.70;99.90
15926;DHT22;8062;53.882;10.642;2022-10-26T00:27:10;7.70;99.90
15926;DHT22;8062;53.882;10.642;2022-10-26T00:28:11;7.60;99.90
15926;DHT22;8062;53.882;10.642;2022-10-26T00:29:12;7.60;99.90
15926;DHT22;8062;53.882;10.642;2022-10-26T00:30:13;7.50;99.90
15926;DHT22;8062;53.882;10.642;2022-10-26T00:31:15;7.50;99.90
15926;DHT22;8062;53.882;10.642;2022-10-26T00:32:16;7.50;99.90
15926;DHT22;8062;53.882;10.642;2022-10-26T00:33:17;7.50;99.90
15926;DHT22;8062;53.882;10.642;2022-10-26T00:34:18;7.50;99.90
15926;DHT22;8062;53.882;10.642;2022-10-26T00:35:19;7.60;99.90
15926;DHT22;8062;53.882;10.642;2022-10-26T00:36:21;7.60;99.90
15926;DHT22;8062;53.882;10.642;2022-10-26T00:37:22;7.80;99.90
15926;DHT22;8062;53.882;10.642;2022-10-26T00:38:23;7.80;99.90
15926;DHT22;8062;53.882;10.642;2022-10-26T00:39:24;7.70;99.90
15926;DHT22;8062;53.882;10.642;2022-10-26T00:40:29;7.70;99.90
15926;DHT22;8062;53.882;10.642;2022-10-26T00:41:32;7.60;99.90
15926;DHT22;8062;53.882;10.642;2022-10-26T00:42:33;7.70;99.90
15926;DHT22;8062;53.882;10.642;2022-10-26T00:43:36;7.70;99.90
15926;DHT22;8062;53.882;10.642;2022-10-26T00:44:59;7.70;99.90
15926;DHT22;8062;53.882;10.642;2022-10-26T00:46:02;7.60;99.90
15926;DHT22;8062;53.882;10.642;2022-10-26T00:47:05;7.60;99.90
15926;DHT22;8062;53.882;10.642;2022-10-26T00:48:09;7.60;99.90
15926;DHT22;8062;53.882;10.642;2022-10-26T00:49:15;7.60;99.90
15926;DHT22;8062;53.882;10.642;2022-10-26T00:50:21;7.60;99.90
15926;DHT22;8062;53.882;10.642;2022-10-26T00:51:35;7.50;99.90
15926;DHT22;8062;53.882;10.642;2022-10-26T00:52:37;7.50;99.90
15926;DHT22;8062;53.882;10.642;2022-10-26T00:53:38;7.50;99.90
15926;DHT22;8062;53.882;10.642;2022-10-26T00:54:40;7.50;99.90
15926;DHT22;8062;53.882;10.642;2022-10-26T00:55:45;7.40;99.90
15926;DHT22;8062;53.882;10.642;2022-10-26T00:56:49;7.40;99.90
15926;DHT22;8062;53.882;10.642;2022-10-26T00:57:52;7.30;99.90
15926;DHT22;8062;53.882;10.642;2022-10-26T00:58:54;7.20;99.90
15926;DHT22;8062;53.882;10.642;2022-10-26T00:59:56;7.20;99.90
15926;DHT22;8062;53.882;10.642;2022-10-26T01:00:58;7.10;99.90
15926;DHT22;8062;53.882;10.642;2022-10-26T01:01:59;7.10;99.90
15926;DHT22;8062;53.882;10.642;2022-10-26T01:03:05;7.10;99.90
15926;DHT22;8062;53.882;10.642;2022-10-26T01:04:06;7.00;99.90
15926;DHT22;8062;53.882;10.642;2022-10-26T01:05:07;7.00;99.90
15926;DHT22;8062;53.882;10.642;2022-10-26T01:06:10;7.00;99.90
15926;DHT22;8062;53.882;10.642;2022-10-26T01:07:11;6.90;99.90
15926;DHT22;8062;53.882;10.642;2022-10-26T01:08:14;6.90;99.90
15926;DHT22;8062;53.882;10.642;2022-10-26T01:09:16;6.90;99.90
15926;DHT22;8062;53.882;10.642;2022-10-26T01:10:19;6.90;99.90
15926;DHT22;8062;53.882;10.642;2022-10-26T01:11:20;6.90;99.90
15926;DHT22;8062;53.882;10.642;2022-10-26T01:12:21;6.90;99.90
15926;DHT22;8062;53.882;10.642;2022-10-26T01:13:26;6.90;99.90
15926;DHT22;8062;53.882;10.642;2022-10-26T01:14:28;6.80;99.90
15926;DHT22;8062;53.882;10.642;2022-10-26T01:15:38;6.80;99.90
15926;DHT22;8062;53.882;10.642;2022-10-26T01:17:11;6.80;99.90
15926;DHT22;8062;53.882;10.642;2022-10-26T01:21:44;6.90;99.90
15926;DHT22;8062;53.882;10.642;2022-10-26T01:22:56;6.90;99.90
15926;DHT22;8062;53.882;10.642;2022-10-26T01:24:04;7.00;99.90
15926;DHT22;8062;53.882;10.642;2022-10-26T01:27:46;6.90;99.90
15926;DHT22;8062;53.882;10.642;2022-10-26T01:29:04;6.80;99.90
15926;DHT22;8062;53.882;10.642;2022-10-26T01:31:37;6.80;99.90
15926;DHT22;8062;53.882;10.642;2022-10-26T01:34:30;6.70;99.90
15926;DHT22;8062;53.882;10.642;2022-10-26T01:36:57;6.60;99.90
15926;DHT22;8062;53.882;10.642;2022-10-26T01:39:41;6.50;99.90
15926;DHT22;8062;53.882;10.642;2022-10-26T01:40:52;6.50;99.90
15926;DHT22;8062;53.882;10.642;2022-10-26T01:41:59;6.50;99.90
15926;DHT22;8062;53.882;10.642;2022-10-26T01:43:04;6.40;99.90
15926;DHT22;8062;53.882;10.642;2022-10-26T01:44:16;6.40;99.90
15926;DHT22;8062;53.882;10.642;2022-10-26T01:45:18;6.40;99.90
15926;DHT22;8062;53.882;10.642;2022-10-26T01:46:21;6.40;99.90
15926;DHT22;8062;53.882;10.642;2022-10-26T01:47:23;6.40;99.90
15926;DHT22;8062;53.882;10.642;2022-10-26T01:48:24;6.40;99.90
15926;DHT22;8062;53.882;10.642;2022-10-26T01:49:35;6.40;99.90
15926;DHT22;8062;53.882;10.642;2022-10-26T01:50:37;6.40;99.90
15926;DHT22;8062;53.882;10.642;2022-10-26T01:51:42;6.40;99.90
15926;DHT22;8062;53.882;10.642;2022-10-26T01:52:43;6.30;99.90
15926;DHT22;8062;53.882;10.642;2022-10-26T01:53:45;6.30;99.90
15926;DHT22;8062;53.882;10.642;2022-10-26T01:54:49;6.30;99.90
15926;DHT22;8062;53.882;10.642;2022-10-26T01:55:54;6.30;99.90
15926;DHT22;8062;53.882;10.642;2022-10-26T01:57:00;6.20;99.90
15926;DHT22;8062;53.882;10.642;2022-10-26T01:58:30;6.20;99.90
15926;DHT22;8062;53.882;10.642;2022-10-26T02:00:05;6.20;99.90
15926;DHT22;8062;53.882;10.642;2022-10-26T02:05:34;6.10;99.90
15926;DHT22;8062;53.882;10.642;2022-10-26T02:06:44;6.10;99.90
15926;DHT22;8062;53.882;10.642;2022-10-26T02:07:59;6.10;99.90
15926;DHT22;8062;53.882;10.642;2022-10-26T02:09:27;6.00;99.90
15926;DHT22;8062;53.882;10.642;2022-10-26T02:11:08;6.00;99.90
15926;DHT22;8062;53.882;10.642;2022-10-26T02:12:24;6.00;99.90
15926;DHT22;8062;53.882;10.642;2022-10-26T02:14:57;6.10;99.90
15926;DHT22;8062;53.882;10.642;2022-10-26T02:16:31;6.00;99.90
15926;DHT22;8062;53.882;10.642;2022-10-26T02:17:45;6.00;99.90
15926;DHT22;8062;53.882;10.642;2022-10-26T02:19:12;6.00;99.90
15926;DHT22;8062;53.882;10.642;2022-10-26T02:20:22;6.00;99.90
15926;DHT22;8062;53.882;10.642;2022-10-26T02:21:36;6.00;99.90
15926;DHT22;8062;53.882;10.642;2022-10-26T02:22:44;6.00;99.90
15926;DHT22;8062;53.882;10.642;2022-10-26T02:23:47;6.00;99.90
15926;DHT22;8062;53.882;10.642;2022-10-26T02:24:51;6.00;99.90
15926;DHT22;8062;53.882;10.642;2022-10-26T02:25:56;5.90;99.90
15926;DHT22;8062;53.882;10.642;2022-10-26T02:27:00;5.90;99.90
15926;DHT22;8062;53.882;10.642;2022-10-26T02:28:10;5.90;99.90
15926;DHT22;8062;53.882;10.642;2022-10-26T02:29:16;5.90;99.90
15926;DHT22;8062;53.882;10.642;2022-10-26T02:30:17;5.90;99.90
15926;DHT22;8062;53.882;10.642;2022-10-26T02:31:19;5.90;99.90
15926;DHT22;8062;53.882;10.642;2022-10-26T02:32:23;5.90;99.90
15926;DHT22;8062;53.882;10.642;2022-10-26T02:33:26;5.90;99.90
15926;DHT22;8062;53.882;10.642;2022-10-26T02:34:29;5.90;99.90
15926;DHT22;8062;53.882;10.642;2022-10-26T02:35:32;5.90;99.90
15926;DHT22;8062;53.882;10.642;2022-10-26T02:36:37;5.80;99.90
15926;DHT22;8062;53.882;10.642;2022-10-26T02:37:40;5.80;99.90
15926;DHT22;8062;53.882;10.642;2022-10-26T02:38:42;5.80;99.90
15926;DHT22;8062;53.882;10.642;2022-10-26T02:39:47;5.80;99.90
15926;DHT22;8062;53.882;10.642;2022-10-26T02:40:50;5.80;99.90
15926;DHT22;8062;53.882;10.642;2022-10-26T02:41:52;5.70;99.90
15926;DHT22;8062;53.882;10.642;2022-10-26T02:42:59;5.80;99.90
15926;DHT22;8062;53.882;10.642;2022-10-26T02:44:26;5.70;99.90
15926;DHT22;8062;53.882;10.642;2022-10-26T02:45:33;5.70;99.90
15926;DHT22;8062;53.882;10.642;2022-10-26T02:46:35;5.70;99.90
15926;DHT22;8062;53.882;10.642;2022-10-26T02:47:36;5.80;99.90
15926;DHT22;8062;53.882;10.642;2022-10-26T02:48:37;5.70;99.90
15926;DHT22;8062;53.882;10.642;2022-10-26T02:49:39;5.70;99.90
15926;DHT22;8062;53.882;10.642;2022-10-26T02:50:50;5.70;99.90
15926;DHT22;8062;53.882;10.642;2022-10-26T02:52:01;5.80;99.90
15926;DHT22;8062;53.882;10.642;2022-10-26T02:55:48;5.90;99.90
15926;DHT22;8062;53.882;10.642;2022-10-26T02:57:04;5.90;99.90
15926;DHT22;8062;53.882;10.642;2022-10-26T02:58:11;5.90;99.90
15926;DHT22;8062;53.882;10.642;2022-10-26T02:59:15;6.00;99.90
15926;DHT22;8062;53.882;10.642;2022-10-26T03:00:19;6.00;99.90
15926;DHT22;8062;53.882;10.642;2022-10-26T03:01:20;5.90;99.90
15926;DHT22;8062;53.882;10.642;2022-10-26T03:02:22;5.90;99.90
15926;DHT22;8062;53.882;10.642;2022-10-26T03:03:23;5.90;99.90
15926;DHT22;8062;53.882;10.642;2022-10-26T03:04:32;5.80;99.90
15926;DHT22;8062;53.882;10.642;2022-10-26T03:05:33;5.80;99.90
15926;DHT22;8062;53.882;10.642;2022-10-26T03:06:36;5.70;99.90
15926;DHT22;8062;53.882;10.642;2022-10-26T03:07:37;5.70;99.90
15926;DHT22;8062;53.882;10.642;2022-10-26T03:08:38;5.70;99.90
15926;DHT22;8062;53.882;10.642;2022-10-26T03:09:39;5.70;99.90
15926;DHT22;8062;53.882;10.642;2022-10-26T03:10:44;5.60;99.90
15926;DHT22;8062;53.882;10.642;2022-10-26T03:11:45;5.60;99.90
15926;DHT22;8062;53.882;10.642;2022-10-26T03:12:46;5.50;99.90
15926;DHT22;8062;53.882;10.642;2022-10-26T03:13:48;5.50;99.90
15926;DHT22;8062;53.882;10.642;2022-10-26T03:14:49;5.50;99.90
15926;DHT22;8062;53.882;10.642;2022-10-26T03:15:50;5.50;99.90
15926;DHT22;8062;53.882;10.642;2022-10-26T03:16:54;5.50;99.90
15926;DHT22;8062;53.882;10.642;2022-10-26T03:17:55;5.50;99.90
15926;DHT22;8062;53.882;10.642;2022-10-26T03:18:56;5.50;99.90
15926;DHT22;8062;53.882;10.642;2022-10-26T03:19:57;5.50;99.90
15926;DHT22;8062;53.882;10.642;2022-10-26T03:20:58;5.50;99.90
15926;DHT22;8062;53.882;10.642;2022-10-26T03:21:59;5.50;99.90
15926;DHT22;8062;53.882;10.642;2022-10-26T03:23:00;5.50;99.90
15926;DHT22;8062;53.882;10.642;2022-10-26T03:24:01;5.50;99.90
15926;DHT22;8062;53.882;10.642;2022-10-26T03:25:03;5.50;99.90
15926;DHT22;8062;53.882;10.642;2022-10-26T03:26:04;5.50;99.90
15926;DHT22;8062;53.882;10.642;2022-10-26T03:27:05;5.50;99.90
15926;DHT22;8062;53.882;10.642;2022-10-26T03:28:06;5.50;99.90
15926;DHT22;8062;53.882;10.642;2022-10-26T03:29:07;5.50;99.90
15926;DHT22;8062;53.882;10.642;2022-10-26T03:30:09;5.50;99.90
15926;DHT22;8062;53.882;10.642;2022-10-26T03:31:10;5.60;99.90
15926;DHT22;8062;53.882;10.642;2022-10-26T03:32:11;5.70;99.90
15926;DHT22;8062;53.882;10.642;2022-10-26T03:33:12;5.80;99.90
15926;DHT22;8062;53.882;10.642;2022-10-26T03:34:13;5.80;99.90
15926;DHT22;8062;53.882;10.642;2022-10-26T03:35:14;5.80;99.90
15926;DHT22;8062;53.882;10.642;2022-10-26T03:36:16;5.80;99.90
15926;DHT22;8062;53.882;10.642;2022-10-26T03:37:17;5.70;99.90
15926;DHT22;8062;53.882;10.642;2022-10-26T03:38:18;5.70;99.90
15926;DHT22;8062;53.882;10.642;2022-10-26T03:39:19;5.70;99.90
15926;DHT22;8062;53.882;10.642;2022-10-26T03:40:20;5.60;99.90
15926;DHT22;8062;53.882;10.642;2022-10-26T03:41:21;5.60;99.90
15926;DHT22;8062;53.882;10.642;2022-10-26T03:42:22;5.60;99.90
15926;DHT22;8062;53.882;10.642;2022-10-26T03:43:23;5.60;99.90
15926;DHT22;8062;53.882;10.642;2022-10-26T03:44:24;5.50;99.90
15926;DHT22;8062;53.882;10.642;2022-10-26T03:45:25;5.50;99.90
15926;DHT22;8062;53.882;10.642;2022-10-26T03:46:26;5.50;99.90
15926;DHT22;8062;53.882;10.642;2022-10-26T03:47:27;5.50;99.90
15926;DHT22;8062;53.882;10.642;2022-10-26T03:48:28;5.50;99.90
15926;DHT22;8062;53.882;10.642;2022-10-26T03:49:29;5.40;99.90
15926;DHT22;8062;53.882;10.642;2022-10-26T03:50:30;5.50;99.90
15926;DHT22;8062;53.882;10.642;2022-10-26T03:51:31;5.50;99.90
15926;DHT22;8062;53.882;10.642;2022-10-26T03:52:32;5.50;99.90
15926;DHT22;8062;53.882;10.642;2022-10-26T03:53:33;5.50;99.90
15926;DHT22;8062;53.882;10.642;2022-10-26T03:54:34;5.50;99.90
15926;DHT22;8062;53.882;10.642;2022-10-26T03:55:35;5.50;99.90
15926;DHT22;8062;53.882;10.642;2022-10-26T03:56:36;5.60;99.90
15926;DHT22;8062;53.882;10.642;2022-10-26T03:57:41;5.60;99.90
15926;DHT22;8062;53.882;10.642;2022-10-26T03:58:42;5.60;99.90
15926;DHT22;8062;53.882;10.642;2022-10-26T03:59:43;5.60;99.90
15926;DHT22;8062;53.882;10.642;2022-10-26T04:00:45;5.60;99.90
15926;DHT22;8062;53.882;10.642;2022-10-26T04:01:46;5.60;99.90
15926;DHT22;8062;53.882;10.642;2022-10-26T04:02:59;5.70;99.90
15926;DHT22;8062;53.882;10.642;2022-10-26T04:04:00;5.80;99.90
15926;DHT22;8062;53.882;10.642;2022-10-26T04:05:01;5.90;99.90
15926;DHT22;8062;53.882;10.642;2022-10-26T04:06:02;6.00;99.90
15926;DHT22;8062;53.882;10.642;2022-10-26T04:07:04;6.10;99.90
15926;DHT22;8062;53.882;10.642;2022-10-26T04:08:05;6.20;99.90
15926;DHT22;8062;53.882;10.642;2022-10-26T04:09:06;6.30;99.90
15926;DHT22;8062;53.882;10.642;2022-10-26T04:10:08;6.40;99.90
15926;DHT22;8062;53.882;10.642;2022-10-26T04:11:09;6.40;99.90
15926;DHT22;8062;53.882;10.642;2022-10-26T04:12:10;6.40;99.90
15926;DHT22;8062;53.882;10.642;2022-10-26T04:13:11;6.30;99.90
15926;DHT22;8062;53.882;10.642;2022-10-26T04:14:12;6.30;99.90
15926;DHT22;8062;53.882;10.642;2022-10-26T04:15:14;6.30;99.90
15926;DHT22;8062;53.882;10.642;2022-10-26T04:16:15;6.20;99.90
15926;DHT22;8062;53.882;10.642;2022-10-26T04:17:16;6.20;99.90
15926;DHT22;8062;53.882;10.642;2022-10-26T04:18:17;6.20;99.90
15926;DHT22;8062;53.882;10.642;2022-10-26T04:19:18;6.20;99.90
15926;DHT22;8062;53.882;10.642;2022-10-26T04:20:19;6.30;99.90
15926;DHT22;8062;53.882;10.642;2022-10-26T04:21:20;6.30;99.90
15926;DHT22;8062;53.882;10.642;2022-10-26T04:22:21;6.40;99.90
15926;DHT22;8062;53.882;10.642;2022-10-26T04:23:22;6.40;99.90
15926;DHT22;8062;53.882;10.642;2022-10-26T04:24:23;6.40;99.90
15926;DHT22;8062;53.882;10.642;2022-10-26T04:25:25;6.60;99.90
15926;DHT22;8062;53.882;10.642;2022-10-26T04:26:26;6.50;99.90
15926;DHT22;8062;53.882;10.642;2022-10-26T04:27:28;6.60;99.90
15926;DHT22;8062;53.882;10.642;2022-10-26T04:28:29;6.50;99.90
15926;DHT22;8062;53.882;10.642;2022-10-26T04:29:30;6.50;99.90
15926;DHT22;8062;53.882;10.642;2022-10-26T04:30:31;6.50;99.90
15926;DHT22;8062;53.882;10.642;2022-10-26T04:31:33;6.50;99.90
15926;DHT22;8062;53.882;10.642;2022-10-26T04:32:34;6.50;99.90
15926;DHT22;8062;53.882;10.642;2022-10-26T04:33:35;6.40;99.90
15926;DHT22;8062;53.882;10.642;2022-10-26T04:34:36;6.40;99.90
15926;DHT22;8062;53.882;10.642;2022-10-26T04:35:37;6.40;99.90
15926;DHT22;8062;53.882;10.642;2022-10-26T04:36:38;6.40;99.90
15926;DHT22;8062;53.882;10.642;2022-10-26T04:37:39;6.40;99.90
15926;DHT22;8062;53.882;10.642;2022-10-26T04:38:40;6.40;99.90
15926;DHT22;8062;53.882;10.642;2022-10-26T04:39:41;6.40;99.90
15926;DHT22;8062;53.882;10.642;2022-10-26T04:40:42;6.40;99.90
15926;DHT22;8062;53.882;10.642;2022-10-26T04:41:43;6.30;99.90
15926;DHT22;8062;53.882;10.642;2022-10-26T04:42:46;6.30;99.90
15926;DHT22;8062;53.882;10.642;2022-10-26T04:43:47;6.20;99.90
15926;DHT22;8062;53.882;10.642;2022-10-26T04:44:48;6.10;99.90
15926;DHT22;8062;53.882;10.642;2022-10-26T04:45:49;6.00;99.90
15926;DHT22;8062;53.882;10.642;2022-10-26T04:46:50;6.00;99.90
15926;DHT22;8062;53.882;10.642;2022-10-26T04:48:02;5.90;99.90
15926;DHT22;8062;53.882;10.642;2022-10-26T04:49:04;5.90;99.90
15926;DHT22;8062;53.882;10.642;2022-10-26T04:50:06;5.80;99.90
15926;DHT22;8062;53.882;10.642;2022-10-26T04:51:07;5.80;99.90
15926;DHT22;8062;53.882;10.642;2022-10-26T04:52:08;5.80;99.90
15926;DHT22;8062;53.882;10.642;2022-10-26T04:53:09;5.80;99.90
15926;DHT22;8062;53.882;10.642;2022-10-26T04:54:10;5.80;99.90
15926;DHT22;8062;53.882;10.642;2022-10-26T04:55:11;5.80;99.90
15926;DHT22;8062;53.882;10.642;2022-10-26T04:56:12;5.90;99.90
15926;DHT22;8062;53.882;10.642;2022-10-26T04:57:13;5.90;99.90
15926;DHT22;8062;53.882;10.642;2022-10-26T04:58:14;5.90;99.90
15926;DHT22;8062;53.882;10.642;2022-10-26T04:59:16;5.90;99.90
15926;DHT22;8062;53.882;10.642;2022-10-26T05:00:17;5.80;99.90
15926;DHT22;8062;53.882;10.642;2022-10-26T05:01:18;5.80;99.90
15926;DHT22;8062;53.882;10.642;2022-10-26T05:02:19;5.70;99.90
15926;DHT22;8062;53.882;10.642;2022-10-26T05:03:21;5.70;99.90
15926;DHT22;8062;53.882;10.642;2022-10-26T05:04:22;5.70;99.90
15926;DHT22;8062;53.882;10.642;2022-10-26T05:05:23;5.60;99.90
15926;DHT22;8062;53.882;10.642;2022-10-26T05:06:24;5.60;99.90
15926;DHT22;8062;53.882;10.642;2022-10-26T05:07:25;5.60;99.90
15926;DHT22;8062;53.882;10.642;2022-10-26T05:08:27;5.60;99.90
15926;DHT22;8062;53.882;10.642;2022-10-26T05:09:29;5.50;99.90
15926;DHT22;8062;53.882;10.642;2022-10-26T05:10:31;5.60;99.90
15926;DHT22;8062;53.882;10.642;2022-10-26T05:11:32;5.60;99.90
15926;DHT22;8062;53.882;10.642;2022-10-26T05:12:33;5.50;99.90
15926;DHT22;8062;53.882;10.642;2022-10-26T05:13:34;5.50;99.90
15926;DHT22;8062;53.882;10.642;2022-10-26T05:14:35;5.50;99.90
15926;DHT22;8062;53.882;10.642;2022-10-26T05:15:36;5.50;99.90
15926;DHT22;8062;53.882;10.642;2022-10-26T05:16:37;5.50;99.90
15926;DHT22;8062;53.882;10.642;2022-10-26T05:17:38;5.50;99.90
15926;DHT22;8062;53.882;10.642;2022-10-26T05:18:39;5.50;99.90
15926;DHT22;8062;53.882;10.642;2022-10-26T05:19:40;5.50;99.90
15926;DHT22;8062;53.882;10.642;2022-10-26T05:20:41;5.50;99.90
15926;DHT22;8062;53.882;10.642;2022-10-26T05:21:42;5.50;99.90
15926;DHT22;8062;53.882;10.642;2022-10-26T05:22:51;5.40;99.90
15926;DHT22;8062;53.882;10.642;2022-10-26T05:23:52;5.50;99.90
15926;DHT22;8062;53.882;10.642;2022-10-26T05:24:55;5.50;99.90
15926;DHT22;8062;53.882;10.642;2022-10-26T05:25:56;5.50;99.90
15926;DHT22;8062;53.882;10.642;2022-10-26T05:26:57;5.60;99.90
15926;DHT22;8062;53.882;10.642;2022-10-26T05:27:59;5.60;99.90
15926;DHT22;8062;53.882;10.642;2022-10-26T05:29:00;5.60;99.90
15926;DHT22;8062;53.882;10.642;2022-10-26T05:30:01;5.70;99.90
15926;DHT22;8062;53.882;10.642;2022-10-26T05:31:03;5.70;99.90
15926;DHT22;8062;53.882;10.642;2022-10-26T05:32:04;5.70;99.90
15926;DHT22;8062;53.882;10.642;2022-10-26T05:33:05;5.60;99.90
15926;DHT22;8062;53.882;10.642;2022-10-26T05:34:07;5.60;99.90
15926;DHT22;8062;53.882;10.642;2022-10-26T05:35:08;5.60;99.90
15926;DHT22;8062;53.882;10.642;2022-10-26T05:36:09;5.50;99.90
15926;DHT22;8062;53.882;10.642;2022-10-26T05:37:10;5.40;99.90
15926;DHT22;8062;53.882;10.642;2022-10-26T05:38:16;5.40;99.90
15926;DHT22;8062;53.882;10.642;2022-10-26T05:39:17;5.40;99.90
15926;DHT22;8062;53.882;10.642;2022-10-26T05:40:18;5.30;99.90
15926;DHT22;8062;53.882;10.642;2022-10-26T05:41:19;5.30;99.90
15926;DHT22;8062;53.882;10.642;2022-10-26T05:42:21;5.20;99.90
15926;DHT22;8062;53.882;10.642;2022-10-26T05:43:22;5.20;99.90
15926;DHT22;8062;53.882;10.642;2022-10-26T05:44:24;5.20;99.90
15926;DHT22;8062;53.882;10.642;2022-10-26T05:45:25;5.30;99.90
15926;DHT22;8062;53.882;10.642;2022-10-26T05:46:26;5.30;99.90
15926;DHT22;8062;53.882;10.642;2022-10-26T05:47:27;5.30;99.90
15926;DHT22;8062;53.882;10.642;2022-10-26T05:48:28;5.30;99.90
15926;DHT22;8062;53.882;10.642;2022-10-26T05:49:29;5.20;99.90
15926;DHT22;8062;53.882;10.642;2022-10-26T05:50:30;5.20;99.90
15926;DHT22;8062;53.882;10.642;2022-10-26T05:51:32;5.20;99.90
15926;DHT22;8062;53.882;10.642;2022-10-26T05:52:41;5.20;99.90
15926;DHT22;8062;53.882;10.642;2022-10-26T05:53:42;5.20;99.90
15926;DHT22;8062;53.882;10.642;2022-10-26T05:54:43;5.20;99.90
15926;DHT22;8062;53.882;10.642;2022-10-26T05:55:45;5.20;99.90
15926;DHT22;8062;53.882;10.642;2022-10-26T05:56:46;5.20;99.90
15926;DHT22;8062;53.882;10.642;2022-10-26T05:57:47;5.10;99.90
15926;DHT22;8062;53.882;10.642;2022-10-26T05:58:48;5.10;99.90
15926;DHT22;8062;53.882;10.642;2022-10-26T05:59:50;5.10;99.90
15926;DHT22;8062;53.882;10.642;2022-10-26T06:01:15;5.00;99.90
15926;DHT22;8062;53.882;10.642;2022-10-26T06:02:26;5.00;99.90
15926;DHT22;8062;53.882;10.642;2022-10-26T06:03:42;5.00;99.90
15926;DHT22;8062;53.882;10.642;2022-10-26T06:04:45;5.10;99.90
15926;DHT22;8062;53.882;10.642;2022-10-26T06:05:53;5.10;99.90
15926;DHT22;8062;53.882;10.642;2022-10-26T06:06:55;5.10;99.90
15926;DHT22;8062;53.882;10.642;2022-10-26T06:07:56;5.10;99.90
15926;DHT22;8062;53.882;10.642;2022-10-26T06:08:58;5.10;99.90
15926;DHT22;8062;53.882;10.642;2022-10-26T06:09:59;5.10;99.90
15926;DHT22;8062;53.882;10.642;2022-10-26T06:11:00;5.10;99.90
15926;DHT22;8062;53.882;10.642;2022-10-26T06:12:03;5.10;99.90
15926;DHT22;8062;53.882;10.642;2022-10-26T06:13:04;5.10;99.90
15926;DHT22;8062;53.882;10.642;2022-10-26T06:14:07;5.10;99.90
15926;DHT22;8062;53.882;10.642;2022-10-26T06:15:13;5.10;99.90
15926;DHT22;8062;53.882;10.642;2022-10-26T06:17:39;5.20;99.90
15926;DHT22;8062;53.882;10.642;2022-10-26T06:19:16;5.20;99.90
15926;DHT22;8062;53.882;10.642;2022-10-26T06:21:50;5.20;99.90
15926;DHT22;8062;53.882;10.642;2022-10-26T06:24:33;5.20;99.90
15926;DHT22;8062;53.882;10.642;2022-10-26T06:25:48;5.20;99.90
15926;DHT22;8062;53.882;10.642;2022-10-26T06:27:16;5.20;99.90
15926;DHT22;8062;53.882;10.642;2022-10-26T06:30:16;5.20;99.90
15926;DHT22;8062;53.882;10.642;2022-10-26T06:31:12;5.30;99.90
15926;DHT22;8062;53.882;10.642;2022-10-26T06:32:14;5.20;99.90
15926;DHT22;8062;53.882;10.642;2022-10-26T06:33:15;5.20;99.90
15926;DHT22;8062;53.882;10.642;2022-10-26T06:34:24;5.20;99.90
15926;DHT22;8062;53.882;10.642;2022-10-26T06:36:38;5.10;99.90
15926;DHT22;8062;53.882;10.642;2022-10-26T06:37:43;5.10;99.90
15926;DHT22;8062;53.882;10.642;2022-10-26T06:38:46;5.10;99.90
15926;DHT22;8062;53.882;10.642;2022-10-26T06:39:48;5.10;99.90
15926;DHT22;8062;53.882;10.642;2022-10-26T06:40:51;5.10;99.90
15926;DHT22;8062;53.882;10.642;2022-10-26T06:41:56;5.10;99.90
15926;DHT22;8062;53.882;10.642;2022-10-26T06:42:59;5.10;99.90
15926;DHT22;8062;53.882;10.642;2022-10-26T06:44:00;5.20;99.90
15926;DHT22;8062;53.882;10.642;2022-10-26T06:45:02;5.20;99.90
15926;DHT22;8062;53.882;10.642;2022-10-26T06:47:35;5.20;99.90
15926;DHT22;8062;53.882;10.642;2022-10-26T06:51:24;5.30;99.90
15926;DHT22;8062;53.882;10.642;2022-10-26T06:52:28;5.30;99.90
15926;DHT22;8062;53.882;10.642;2022-10-26T06:53:41;5.30;99.90
15926;DHT22;8062;53.882;10.642;2022-10-26T06:54:51;5.40;99.90
15926;DHT22;8062;53.882;10.642;2022-10-26T06:55:54;5.40;99.90
15926;DHT22;8062;53.882;10.642;2022-10-26T06:56:57;5.40;99.90
15926;DHT22;8062;53.882;10.642;2022-10-26T06:57:58;5.40;99.90
15926;DHT22;8062;53.882;10.642;2022-10-26T06:59:06;5.50;99.90
15926;DHT22;8062;53.882;10.642;2022-10-26T07:00:20;5.50;99.90
15926;DHT22;8062;53.882;10.642;2022-10-26T07:01:22;5.60;99.90
15926;DHT22;8062;53.882;10.642;2022-10-26T07:02:23;5.70;99.90
15926;DHT22;8062;53.882;10.642;2022-10-26T07:03:24;5.80;99.90
15926;DHT22;8062;53.882;10.642;2022-10-26T07:04:25;5.80;99.90
15926;DHT22;8062;53.882;10.642;2022-10-26T07:05:27;5.90;99.90
15926;DHT22;8062;53.882;10.642;2022-10-26T07:06:28;5.90;99.90
15926;DHT22;8062;53.882;10.642;2022-10-26T07:07:30;6.00;99.90
15926;DHT22;8062;53.882;10.642;2022-10-26T07:08:31;6.00;99.90
15926;DHT22;8062;53.882;10.642;2022-10-26T07:09:32;6.10;99.90
15926;DHT22;8062;53.882;10.642;2022-10-26T07:10:33;6.10;99.90
15926;DHT22;8062;53.882;10.642;2022-10-26T07:11:38;6.20;99.90
15926;DHT22;8062;53.882;10.642;2022-10-26T07:12:40;6.30;99.90
15926;DHT22;8062;53.882;10.642;2022-10-26T07:13:41;6.30;99.90
15926;DHT22;8062;53.882;10.642;2022-10-26T07:14:42;6.30;99.90
15926;DHT22;8062;53.882;10.642;2022-10-26T07:15:43;6.40;99.90
15926;DHT22;8062;53.882;10.642;2022-10-26T07:16:44;6.50;99.90
15926;DHT22;8062;53.882;10.642;2022-10-26T07:17:47;6.50;99.90
15926;DHT22;8062;53.882;10.642;2022-10-26T07:18:48;6.60;99.90
15926;DHT22;8062;53.882;10.642;2022-10-26T07:19:49;6.70;99.90
15926;DHT22;8062;53.882;10.642;2022-10-26T07:20:50;6.70;99.90